M I D A S
Marine Information and Data Acquisition System
Tripno 257 of the Zeeleeuw from 2001-12-07 06:15:00 to 2001-12-07 16:30:00
Back to CruiseResearch ActivitiesStationsMapUnderway DataData graphs

EquipmentUnitsComment
TimeDGPSUTC
LatitudeDGPSDM.mWGS84
LongitudeDGPSDM.mWGS84
TemperatureSBE03/SBE38deg celciusITS90
ConductivitySBE21S/mITS90
SalinitySBE21 Practical Salinity Units
ChlorophylAChelsea fluorimeterg/lCalibrated in Aceton
Missing or incorrect values are displayed as -999
Sea surface data collected by the RV Zeeleeuw from 2001-12-07 06:15:00 to 2001-12-07 16:30:00
                                                                                    Next 1000 lines
Time Latitude Longitude Temperature Conductivity Salinity ChlorophylA
2001-12-07 08:31:04 51°15.6 2°54.496 10.984143 3.353935 30.203992  
2001-12-07 08:31:09 51°15.619 2°54.493 11.099916 3.3922 30.632161  
2001-12-07 08:31:14 51°15.638 2°54.49 10.870573 3.427861 30.986744  
2001-12-07 08:31:19 51°15.657 2°54.486 10.871082 3.448598 31.192688  
2001-12-07 08:31:24 51°15.676 2°54.482 10.871082 3.448598 31.192688  
2001-12-07 08:31:29 51°15.695 2°54.477 10.943149 3.445793 31.174323  
2001-12-07 08:31:35 51°15.718 2°54.47 11.132884 3.489372 31.615758  
2001-12-07 08:31:39 51°15.733 2°54.466 11.162058 3.48827 31.609638  
2001-12-07 08:31:44 51°15.752 2°54.459 10.879042 3.48837 31.612064  
2001-12-07 08:31:49 51°15.771 2°54.452 10.754812 3.487468 31.605121  
2001-12-07 08:31:56 51°15.797 2°54.44 10.754812 3.487468 31.605121  
2001-12-07 08:31:59 51°15.808 2°54.434 10.671304 3.44409 31.17331  
2001-12-07 08:32:05 51°15.83 2°54.422 10.852706 3.485164 31.586193  
2001-12-07 08:32:09 51°15.844 2°54.414 11.06887 3.486567 31.605271  
2001-12-07 08:32:14 51°15.863 2°54.405 10.722674 3.489472 31.640194  
2001-12-07 08:32:19 51°15.882 2°54.397 11.063055 3.484463 31.598288  
2001-12-07 08:32:24 51°15.901 2°54.389 11.063055 3.484463 31.598288  
2001-12-07 08:32:29 51°15.919 2°54.382 10.893849 3.486166 31.628222  
2001-12-07 08:32:35 51°15.942 2°54.375 10.797221 3.48266 31.600009  
2001-12-07 08:32:39 51°15.958 2°54.371 10.833352 3.484664 31.628724  
2001-12-07 08:32:45 51°15.981 2°54.366 11.095535 3.475147 31.542772  
2001-12-07 08:32:50 51°16 2°54.361 10.681331 3.47675 31.565312  
2001-12-07 08:32:56 51°16.023 2°54.355 10.681331 3.47675 31.565312  
2001-12-07 08:33:00 51°16.038 2°54.351 10.717711 3.469036 31.491833  
2001-12-07 08:33:03 51°16.049 2°54.348 11.01837 3.473444 31.539091  
2001-12-07 08:33:09 51°16.07 2°54.343 10.70936 3.476649 31.570694  
2001-12-07 08:33:14 51°16.087 2°54.339 10.627467 3.478252 31.590407  
2001-12-07 08:33:20 51°16.107 2°54.334 10.741041 3.477551 31.58618  
2001-12-07 08:33:24 51°16.12 2°54.331 10.741041 3.477551 31.58618  
2001-12-07 08:33:29 51°16.135 2°54.328 10.812463 3.478553 31.596281  
2001-12-07 08:33:35 51°16.152 2°54.325 10.739232 3.478152 31.593663  
2001-12-07 08:33:39 51°16.164 2°54.323 10.883392 3.46573 31.472686  
2001-12-07 08:33:45 51°16.179 2°54.321 10.953181 3.477351 31.593404  
2001-12-07 08:33:49 51°16.189 2°54.321 10.728101 3.471941 31.54311  
2001-12-07 08:33:55 51°16.202 2°54.32 10.728101 3.471941 31.54311  
2001-12-07 08:34:00 51°16.212 2°54.321 10.836825 3.476349 31.591124  
2001-12-07 08:34:04 51°16.22 2°54.321 11.24812 3.463426 31.465046  
2001-12-07 08:34:09 51°16.227 2°54.322 10.908189 3.468134 31.513948  
2001-12-07 08:34:15 51°16.236 2°54.322 10.750315 3.471541 31.550436  
2001-12-07 08:34:19 51°16.241 2°54.322 10.829971 3.468836 31.524571  
2001-12-07 08:34:25 51°16.247 2°54.321 10.829971 3.468836 31.524571  
2001-12-07 08:34:29 51°16.25 2°54.321 10.824043 3.470539 31.546726  
2001-12-07 08:34:33 51°16.252 2°54.321 11.120759 3.473845 31.585778  
2001-12-07 08:34:39 51°16.255 2°54.32 11.007286 3.470238 31.551514  
2001-12-07 08:34:45 51°16.258 2°54.32 10.665315 3.469537 31.547992  
2001-12-07 08:34:49 51°16.26 2°54.319 10.851409 3.462925 31.482687  
2001-12-07 08:34:55 51°16.261 2°54.318 10.851409 3.462925 31.482687  
2001-12-07 08:34:59 51°16.262 2°54.318 11.041363 3.468836 31.544469  
2001-12-07 08:35:05 51°16.263 2°54.317 11.155929 3.463627 31.495443  
2001-12-07 08:35:10 51°16.264 2°54.316 10.928122 3.457015 31.433683  
2001-12-07 08:35:14 51°16.265 2°54.316 11.037439 3.459319 31.457645  
2001-12-07 08:35:20 51°16.266 2°54.315 11.03827 3.465831 31.525506  
2001-12-07 08:35:24 51°16.267 2°54.314 11.03827 3.465831 31.525506  
2001-12-07 08:35:30 51°16.267 2°54.313 11.077359 3.452206 31.390118  
2001-12-07 08:35:34 51°16.266 2°54.311 10.926042 3.458818 31.458974  
2001-12-07 08:35:40 51°16.265 2°54.309 10.734734 3.46533 31.525426  
2001-12-07 08:35:45 51°16.265 2°54.307 10.69233 3.458017 31.451594  
2001-12-07 08:35:49 51°16.264 2°54.306 10.7696 3.452206 31.394366  
2001-12-07 08:35:55 51°16.263 2°54.304 10.7696 3.452206 31.394366  
2001-12-07 08:36:00 51°16.263 2°54.302 10.807831 3.450303 31.376573  
2001-12-07 08:36:06 51°16.263 2°54.3 10.730467 3.458618 31.461209  
2001-12-07 08:36:10 51°16.264 2°54.3 10.922527 3.455312 31.429254  
2001-12-07 08:36:15 51°16.266 2°54.299 10.502619 3.47074 31.587183  
2001-12-07 08:36:20 51°16.268 2°54.298 10.884734 3.461824 31.499261  
2001-12-07 08:36:25 51°16.27 2°54.297 10.884734 3.461824 31.499261  
2001-12-07 08:36:30 51°16.273 2°54.297 10.923961 3.462324 31.502897  
2001-12-07 08:36:35 51°16.275 2°54.296 10.695718 3.465029 31.533061  
2001-12-07 08:36:39 51°16.277 2°54.295 11.337195 3.464228 31.524966  
2001-12-07 08:36:44 51°16.279 2°54.294 11.000589 3.470139 31.584674  
2001-12-07 08:36:49 51°16.281 2°54.293 10.84803 3.46523 31.537219  
2001-12-07 08:36:55 51°16.282 2°54.292 10.84803 3.46523 31.537219  
2001-12-07 08:36:59 51°16.283 2°54.291 10.810935 3.463026 31.515668  
2001-12-07 08:37:05 51°16.283 2°54.29 10.871869 3.45431 31.424813  
2001-12-07 08:37:09 51°16.283 2°54.289 11.038178 3.461323 31.495623  
2001-12-07 08:37:14 51°16.284 2°54.289 10.699894 3.469337 31.578002  
2001-12-07 08:37:19 51°16.284 2°54.288 10.92188 3.468836 31.572941  
2001-12-07 08:37:25 51°16.284 2°54.287 10.92188 3.468836 31.572941  
2001-12-07 08:37:30 51°16.285 2°54.286 10.773216 3.466432 31.548652  
2001-12-07 08:37:35 51°16.285 2°54.285 10.847381 3.460922 31.491576  
2001-12-07 08:37:39 51°16.286 2°54.285 10.695765 3.464629 31.530436  
2001-12-07 08:37:45 51°16.286 2°54.284 10.770157 3.464929 31.532049  
2001-12-07 08:37:49 51°16.286 2°54.283 10.733157 3.471441 31.599971  
2001-12-07 08:37:55 51°16.287 2°54.282 10.733157 3.471441 31.599971  
2001-12-07 08:37:59 51°16.287 2°54.282 10.881448 3.455512 31.43766  
2001-12-07 08:38:05 51°16.288 2°54.281 10.619522 3.47064 31.591873  
2001-12-07 08:38:09 51°16.289 2°54.28 10.809545 3.468235 31.569006  
2001-12-07 08:38:14 51°16.289 2°54.279 10.922296 3.468536 31.570617  
2001-12-07 08:38:19 51°16.29 2°54.278 10.919706 3.467133 31.558584  
2001-12-07 08:38:25 51°16.29 2°54.277 10.919706 3.467133 31.558584  
2001-12-07 08:38:29 51°16.291 2°54.276 10.843909 3.460421 31.491492  
2001-12-07 08:38:35 51°16.292 2°54.275 10.237957 3.463226 31.519826  
2001-12-07 08:38:40 51°16.292 2°54.274 10.278133 3.468235 31.569006  
2001-12-07 08:38:45 51°16.293 2°54.273 10.386626 3.468736 31.575492  
2001-12-07 08:38:49 51°16.294 2°54.272 10.349595 3.45992 31.487143  
2001-12-07 08:38:55 51°16.295 2°54.271 10.349595 3.45992 31.487143  
2001-12-07 08:38:59 51°16.295 2°54.27 10.387838 3.472343 31.613363  
2001-12-07 08:39:04 51°16.296 2°54.269 10.310676 3.458818 31.476724  
2001-12-07 08:39:10 51°16.297 2°54.267 10.618361 3.462926 31.518213  
2001-12-07 08:39:15 51°16.298 2°54.266 10.540587 3.454811 31.436964  
2001-12-07 08:39:19 51°16.298 2°54.265 10.351555 3.468736 31.57763  
2001-12-07 08:39:25 51°16.299 2°54.264 10.351555 3.468736 31.57763  
2001-12-07 08:39:29 51°16.3 2°54.263 10.578858 3.462926 31.519635  
2001-12-07 08:39:34 51°16.301 2°54.262 10.544168 3.467334 31.565596  
2001-12-07 08:39:39 51°16.302 2°54.261 10.538773 3.47094 31.601328  
2001-12-07 08:39:44 51°16.303 2°54.26 10.615852 3.45952 31.485228  
2001-12-07 08:39:50 51°16.304 2°54.259 10.540494 3.470239 31.594955  
2001-12-07 08:39:53 51°16.305 2°54.258 10.540494 3.470239 31.594955  
2001-12-07 08:39:59 51°16.306 2°54.257 10.688246 3.462525 31.517721  
2001-12-07 08:40:04 51°16.307 2°54.256 10.576719 3.466131 31.552736  
2001-12-07 08:40:10 51°16.308 2°54.254 10.386439 3.46543 31.54565  
2001-12-07 08:40:15 51°16.309 2°54.253 10.652686 3.467133 31.564283  
2001-12-07 08:40:19 51°16.31 2°54.252 10.650736 3.462525 31.519144  
2001-12-07 08:40:24 51°16.311 2°54.251 10.650736 3.462525 31.519144  
2001-12-07 08:40:30 51°16.312 2°54.25 10.688525 3.467434 31.570171  
2001-12-07 08:40:35 51°16.313 2°54.249 10.760978 3.470139 31.597508  
2001-12-07 08:40:39 51°16.314 2°54.248 10.722581 3.466432 31.560047  
2001-12-07 08:40:45 51°16.315 2°54.247 10.687597 3.459419 31.489902  
2001-12-07 08:40:49 51°16.316 2°54.246 10.612786 3.46543 31.55206  
2001-12-07 08:40:54 51°16.317 2°54.246 10.612786 3.46543 31.55206  
2001-12-07 08:40:59 51°16.318 2°54.244 10.84076 3.47094 31.60775  
2001-12-07 08:41:05 51°16.32 2°54.243 11.140306 3.461724 31.516027  
2001-12-07 08:41:09 51°16.321 2°54.243 11.029221 3.472343 31.624069  
2001-12-07 08:41:14 51°16.322 2°54.242 10.802271 3.471441 31.615668  
2001-12-07 08:41:19 51°16.323 2°54.241 10.876589 3.464228 31.542048  
2001-12-07 08:41:24 51°16.324 2°54.24 10.876589 3.464228 31.542048  
2001-12-07 08:41:29 51°16.325 2°54.239 10.762786 3.471441 31.613527  
2001-12-07 08:41:34 51°16.326 2°54.239 10.647206 3.471742 31.616565  
2001-12-07 08:41:40 51°16.328 2°54.238 10.572535 3.465931 31.557835  
2001-12-07 08:41:45 51°16.329 2°54.237 10.955168 3.469938 31.59905  
2001-12-07 08:41:49 51°16.33 2°54.236 10.534307 3.468436 31.582435  
2001-12-07 08:41:55 51°16.331 2°54.236 10.534307 3.468436 31.582435  
2001-12-07 08:41:59 51°16.332 2°54.235 10.685555 3.47094 31.609177  
2001-12-07 08:42:05 51°16.333 2°54.234 10.683698 3.467935 31.579511  
2001-12-07 08:42:10 51°16.334 2°54.234 10.984836 3.467835 31.579924  
2001-12-07 08:42:15 51°16.335 2°54.233 10.945738 3.469438 31.595414  
2001-12-07 08:42:19 51°16.336 2°54.232 10.68082 3.469638 31.598152  
2001-12-07 08:42:25 51°16.338 2°54.231 10.68082 3.469638 31.598152  
2001-12-07 08:42:29 51°16.338 2°54.231 10.983312 3.468436 31.585287  
2001-12-07 08:42:34 51°16.34 2°54.23 10.604189 3.46533 31.556035  
2001-12-07 08:42:40 51°16.341 2°54.23 10.602702 3.470039 31.604344  
2001-12-07 08:42:45 51°16.342 2°54.229 10.792958 3.455713 31.460271  
2001-12-07 08:42:49 51°16.343 2°54.228 10.219402 3.466232 31.567999  
2001-12-07 08:42:54 51°16.344 2°54.228 10.219402 3.466232 31.567999  
2001-12-07 08:42:59 51°16.345 2°54.227 10.295457 3.465731 31.564362  
2001-12-07 08:43:04 51°16.346 2°54.227 10.065947 3.466032 31.568826  
2001-12-07 08:43:09 51°16.347 2°54.226 10.370025 3.464228 31.549884  
2001-12-07 08:43:14 51°16.348 2°54.226 10.407697 3.457316 31.480731  
2001-12-07 08:43:20 51°16.35 2°54.225 10.788742 3.466432 31.575016  
2001-12-07 08:43:25 51°16.351 2°54.225 10.788742 3.466432 31.575016  
2001-12-07 08:43:29 51°16.352 2°54.224 10.713396 3.457616 31.487324  
2001-12-07 08:43:35 51°16.353 2°54.224 10.748877 3.467434 31.585859  
2001-12-07 08:43:39 51°16.353 2°54.223 10.824182 3.468837 31.601468  
2001-12-07 08:43:44 51°16.354 2°54.223 10.7861 3.466232 31.575844  
2001-12-07 08:43:49 51°16.355 2°54.222 10.442645 3.468035 31.594078  
2001-12-07 08:43:55 51°16.356 2°54.222 10.442645 3.468035 31.594078  
2001-12-07 08:43:59 51°16.357 2°54.221 10.825155 3.468837 31.602896  
2001-12-07 08:44:05 51°16.358 2°54.221 10.823163 3.465831 31.573932  
2001-12-07 08:44:09 51°16.359 2°54.22 10.859464 3.465831 31.573932  
2001-12-07 08:44:15 51°16.36 2°54.22 10.667033 3.46493 31.564815  
2001-12-07 08:44:19 51°16.361 2°54.22 10.972961 3.464729 31.562789  
2001-12-07 08:44:25 51°16.362 2°54.219 10.972961 3.464729 31.562789  
2001-12-07 08:44:34 51°16.364 2°54.219 10.667312 3.461524 31.531089  
2001-12-07 08:44:39 51°16.365 2°54.218 10.78091 3.468636 31.605154  
2001-12-07 08:44:45 51°16.366 2°54.218 10.592524 3.469939 31.619755  
2001-12-07 08:44:50 51°16.367 2°54.218 10.859094 3.466232 31.582265  
2001-12-07 08:44:55 51°16.368 2°54.217 10.859094 3.466232 31.582265  
2001-12-07 08:45:00 51°16.369 2°54.217 10.17077 3.470941 31.629174  
2001-12-07 08:45:05 51°16.369 2°54.217 10.092086 3.468837 31.608608  
2001-12-07 08:45:09 51°16.37 2°54.216 10.017341 3.47064 31.627563  
2001-12-07 08:45:15 51°16.371 2°54.216 10.16815 3.470339 31.625237  
2001-12-07 08:45:20 51°16.372 2°54.216 10.20519 3.470339 31.625237  
2001-12-07 08:45:24 51°16.373 2°54.216 10.20519 3.470339 31.625237  
2001-12-07 08:45:29 51°16.374 2°54.215 10.169787 3.470039 31.623626  
2001-12-07 08:45:35 51°16.375 2°54.215 10.779519 3.47074 31.630006  
2001-12-07 08:45:39 51°16.375 2°54.214 10.855067 3.47064 31.630422  
2001-12-07 08:45:44 51°16.376 2°54.214 10.587783 3.47034 31.626667  
2001-12-07 08:45:50 51°16.377 2°54.214 11.007148 3.469939 31.623328  
2001-12-07 08:45:55 51°16.378 2°54.214 11.007148 3.469939 31.623328  
2001-12-07 08:45:59 51°16.379 2°54.213 10.626537 3.469438 31.620404  
2001-12-07 08:46:04 51°16.379 2°54.213 10.814455 3.467034 31.596081  
2001-12-07 08:46:08 51°16.38 2°54.213 10.702957 3.467434 31.599421  
2001-12-07 08:46:15 51°16.381 2°54.213 10.703328 3.470239 31.628512  
2001-12-07 08:46:20 51°16.382 2°54.212 10.70008 3.470239 31.629227  
2001-12-07 08:46:24 51°16.383 2°54.212 10.70008 3.470239 31.629227  
2001-12-07 08:46:30 51°16.383 2°54.212 10.8559 3.470239 31.629227  
2001-12-07 08:46:34 51°16.384 2°54.212 10.626212 3.47034 31.63167  
2001-12-07 08:46:39 51°16.385 2°54.211 10.54975 3.469338 31.620105  
2001-12-07 08:46:45 51°16.386 2°54.211 10.818578 3.458418 31.510371  
2001-12-07 08:46:50 51°16.386 2°54.211 10.757038 3.466032 31.588089  
2001-12-07 08:46:54 51°16.387 2°54.211 10.757038 3.466032 31.588089  
2001-12-07 08:46:59 51°16.388 2°54.21 10.663226 3.47034 31.630955  
2001-12-07 08:47:04 51°16.389 2°54.21 11.115964 3.467234 31.598822  
2001-12-07 08:47:10 51°16.389 2°54.21 10.507785 3.470039 31.62863  
2001-12-07 08:47:15 51°16.39 2°54.21 10.585691 3.468837 31.615752  
2001-12-07 08:47:19 51°16.391 2°54.21 10.123365 3.468136 31.610086  
2001-12-07 08:47:25 51°16.392 2°54.209 10.123365 3.468136 31.610086  
2001-12-07 08:47:29 51°16.392 2°54.209 10.391288 3.465331 31.580996  
2001-12-07 08:47:34 51°16.393 2°54.209 10.082438 3.469839 31.628032  
2001-12-07 08:47:39 51°16.394 2°54.209 10.162442 3.468937 31.621769  
2001-12-07 08:47:44 51°16.394 2°54.208 10.275284 3.469839 31.632322  
2001-12-07 08:47:49 51°16.395 2°54.208 10.31245 3.463227 31.564709  
2001-12-07 08:47:55 51°16.396 2°54.208 10.31245 3.463227 31.564709  
2001-12-07 08:47:59 51°16.396 2°54.207 10.619708 3.465631 31.590462  
2001-12-07 08:48:05 51°16.397 2°54.207 10.769415 3.467535 31.61115  
2001-12-07 08:48:09 51°16.398 2°54.207 10.847613 3.470039 31.63578  
2001-12-07 08:48:15 51°16.399 2°54.207 10.731997 3.466733 31.601612  
2001-12-07 08:48:20 51°16.4 2°54.207 10.464816 3.469839 31.633752  
2001-12-07 08:48:25 51°16.4 2°54.206 10.464816 3.469839 31.633752  
2001-12-07 08:48:30 51°16.401 2°54.206 10.57923 3.470139 31.636794  
2001-12-07 08:48:35 51°16.402 2°54.206 10.847706 3.466232 31.597972  
2001-12-07 08:48:40 51°16.402 2°54.205 10.885705 3.457316 31.507773  
2001-12-07 08:48:45 51°16.403 2°54.205 10.467331 3.469538 31.630711  
2001-12-07 08:48:50 51°16.404 2°54.205 10.469566 3.469839 31.635898  
2001-12-07 08:48:55 51°16.405 2°54.205 10.469566 3.469839 31.635898  
2001-12-07 08:48:59 51°16.405 2°54.205 10.850437 3.470039 31.63721  
2001-12-07 08:49:05 51°16.406 2°54.204 10.736728 3.469138 31.627371  
2001-12-07 08:49:09 51°16.407 2°54.204 10.695625 3.469438 31.631127  
2001-12-07 08:49:15 51°16.407 2°54.204 10.616595 3.468036 31.615504  
2001-12-07 08:49:19 51°16.408 2°54.203 10.848307 3.470039 31.63578  
2001-12-07 08:49:24 51°16.409 2°54.203 10.848307 3.470039 31.63578  
2001-12-07 08:49:29 51°16.41 2°54.203 10.994538 3.469037 31.626357  
2001-12-07 08:49:35 51°16.41 2°54.203 9.543401 3.465431 31.58772  
2001-12-07 08:49:40 51°16.411 2°54.202 9.539906 3.466633 31.602741  
2001-12-07 08:49:45 51°16.412 2°54.202 9.538772 3.469238 31.629815  
2001-12-07 08:49:49 51°16.413 2°54.202 9.537544 3.47024 31.640669  
2001-12-07 08:49:55 51°16.414 2°54.201 9.537544 3.47024 31.640669  
2001-12-07 08:49:59 51°16.414 2°54.201 9.537119 3.466934 31.605782  
2001-12-07 08:50:05 51°16.415 2°54.201 9.538111 3.467535 31.611865  
2001-12-07 08:50:10 51°16.416 2°54.2 9.539669 3.47064 31.640432  
2001-12-07 08:50:15 51°16.417 2°54.2 9.540945 3.467835 31.611333  
2001-12-07 08:50:20 51°16.418 2°54.2 9.542031 3.471141 31.645501  
2001-12-07 08:50:24 51°16.418 2°54.2 9.542031 3.471141 31.645501  
2001-12-07 08:50:29 51°16.42 2°54.2 9.541842 3.470139 31.635363  
2001-12-07 08:50:35 51°16.422 2°54.201 9.542314 3.468336 31.617116  
2001-12-07 08:50:39 51°16.423 2°54.202 9.542551 3.471742 31.6523  
2001-12-07 08:50:45 51°16.426 2°54.204 9.540945 3.466332 31.595414  
2001-12-07 08:50:50 51°16.429 2°54.205 9.57839 3.472143 31.653493  
2001-12-07 08:50:55 51°16.432 2°54.206 9.57839 3.472143 31.653493  
2001-12-07 08:51:00 51°16.435 2°54.207 9.540047 3.471141 31.64264  
2001-12-07 08:51:04 51°16.438 2°54.207 9.539197 3.471241 31.642939  
2001-12-07 08:51:10 51°16.443 2°54.207 9.540331 3.468336 31.614257  
2001-12-07 08:51:14 51°16.446 2°54.207 9.541417 3.472143 31.652062  
2001-12-07 08:51:19 51°16.45 2°54.206 9.544818 3.471542 31.647411  
2001-12-07 08:51:25 51°16.455 2°54.203 9.544818 3.471542 31.647411  
2001-12-07 08:51:29 51°16.459 2°54.201 9.585187 3.472243 31.653792  
2001-12-07 08:51:35 51°16.464 2°54.196 9.550107 3.471041 31.642342  
2001-12-07 08:51:39 51°16.469 2°54.191 9.551855 3.471943 31.651466  
2001-12-07 08:51:44 51°16.474 2°54.184 9.55431 3.471241 31.645085  
2001-12-07 08:51:50 51°16.48 2°54.173 9.556577 3.470139 31.633218  
2001-12-07 08:51:55 51°16.486 2°54.162 9.556577 3.470139 31.633218  
2001-12-07 08:51:59 51°16.491 2°54.153 9.559788 3.47034 31.6331  
2001-12-07 08:52:05 51°16.497 2°54.138 9.558655 3.47054 31.632983  
2001-12-07 08:52:10 51°16.503 2°54.124 9.558844 3.471141 31.637634  
2001-12-07 08:52:14 51°16.508 2°54.112 9.59524 3.472143 31.647055  
2001-12-07 08:52:19 51°16.514 2°54.098 9.557002 3.472343 31.646222  
2001-12-07 08:52:24 51°16.52 2°54.082 9.557002 3.472343 31.646222  
2001-12-07 08:52:29 51°16.526 2°54.066 9.600101 3.471742 31.637996  
2001-12-07 08:52:35 51°16.533 2°54.046 9.603405 3.472644 31.644257  
2001-12-07 08:52:40 51°16.539 2°54.029 9.644209 3.472043 31.637462  
2001-12-07 08:52:44 51°16.544 2°54.015 9.566493 3.469638 31.611715  
2001-12-07 08:52:49 51°16.551 2°53.998 9.566446 3.472343 31.640502  
2001-12-07 08:52:55 51°16.56 2°53.977 9.566446 3.472343 31.640502  
2001-12-07 08:52:59 51°16.565 2°53.964 9.56451 3.472744 31.643125  
2001-12-07 08:53:04 51°16.572 2°53.947 9.562716 3.472844 31.643424  
2001-12-07 08:53:09 51°16.58 2°53.93 9.560591 3.472644 31.637824  
2001-12-07 08:53:15 51°16.589 2°53.909 9.547226 3.472443 31.635797  
2001-12-07 08:53:19 51°16.595 2°53.895 9.529702 3.471141 31.620484  
2001-12-07 08:53:25 51°16.603 2°53.874 9.529702 3.471141 31.620484  
2001-12-07 08:53:29 51°16.61 2°53.86 9.517607 3.473946 31.64885  
2001-12-07 08:53:34 51°16.617 2°53.843 9.588397 3.469638 31.605289  
2001-12-07 08:53:41 51°16.628 2°53.818 9.506455 3.473545 31.646227  
2001-12-07 08:53:44 51°16.633 2°53.808 9.50414 3.474747 31.659816  
2001-12-07 08:53:50 51°16.643 2°53.788 9.501351 3.474948 31.668996  
2001-12-07 08:53:55 51°16.651 2°53.771 9.501351 3.474948 31.668996  
2001-12-07 08:54:00 51°16.659 2°53.754 9.497995 3.47054 31.634413  
2001-12-07 08:54:04 51°16.665 2°53.741 9.495443 3.472343 31.661247  
2001-12-07 08:54:09 51°16.674 2°53.724 9.490953 3.467134 31.618533  
2001-12-07 08:54:14 51°16.682 2°53.707 9.489298 3.470039 31.651523  
2001-12-07 08:54:19 51°16.69 2°53.69 9.567154 3.469338 31.648002  
2001-12-07 08:54:25 51°16.699 2°53.669 9.567154 3.469338 31.648002  
2001-12-07 08:54:29 51°16.705 2°53.655 9.48944 3.468937 31.64824  
2001-12-07 08:54:35 51°16.714 2°53.634 9.493836 3.462225 31.583134  
2001-12-07 08:54:39 51°16.72 2°53.62 9.495727 3.463027 31.594109  
2001-12-07 08:54:45 51°16.729 2°53.598 9.536174 3.465531 31.62305  
2001-12-07 08:54:49 51°16.735 2°53.583 9.498752 3.465431 31.624182  
2001-12-07 08:54:55 51°16.743 2°53.562 9.498752 3.465431 31.624182  
2001-12-07 08:54:59 51°16.749 2°53.547 9.536694 3.464129 31.613138  
2001-12-07 08:55:05 51°16.758 2°53.526 9.538536 3.463528 31.606334  
2001-12-07 08:55:09 51°16.764 2°53.511 9.500689 3.461925 31.589384  
2001-12-07 08:55:15 51°16.774 2°53.49 9.50258 3.464129 31.610275  
2001-12-07 08:55:19 51°16.78 2°53.477 9.502485 3.463929 31.608246  
2001-12-07 08:55:25 51°16.79 2°53.456 9.502485 3.463929 31.608246  
2001-12-07 08:55:29 51°16.797 2°53.443 9.507684 3.464429 31.611888  
2001-12-07 08:55:35 51°16.806 2°53.422 9.510803 3.465131 31.618275  
2001-12-07 08:55:39 51°16.813 2°53.408 9.5143 3.465131 31.616129  
2001-12-07 08:55:46 51°16.824 2°53.384 9.517891 3.464429 31.608311  
2001-12-07 08:55:49 51°16.829 2°53.374 9.51808 3.458719 31.549777  
2001-12-07 08:55:53 51°16.835 2°53.36 9.51808 3.458719 31.549777  
2001-12-07 08:55:59 51°16.845 2°53.339 9.556719 3.465832 31.621084  
2001-12-07 08:56:05 51°16.854 2°53.318 9.561157 3.45381 31.497235  
2001-12-07 08:56:09 51°16.86 2°53.304 9.520726 3.465832 31.616791  
2001-12-07 08:56:15 51°16.869 2°53.283 9.5186 3.461424 31.569305  
2001-12-07 08:56:19 51°16.875 2°53.268 9.522096 3.467835 31.633502  
2001-12-07 08:56:26 51°16.885 2°53.243 9.522096 3.467835 31.633502  
2001-12-07 08:56:29 51°16.89 2°53.232 9.525214 3.469138 31.644541  
2001-12-07 08:56:34 51°16.897 2°53.215 9.526868 3.470039 31.652955  
2001-12-07 08:56:40 51°16.906 2°53.193 9.53145 3.470841 31.658921  
2001-12-07 08:56:45 51°16.913 2°53.176 9.573716 3.471342 31.663277  
2001-12-07 08:56:50 51°16.921 2°53.159 9.539103 3.467735 31.626763  
2001-12-07 08:56:55 51°16.929 2°53.142 9.539103 3.467735 31.626763  
2001-12-07 08:56:59 51°16.936 2°53.128 9.546943 3.472343 31.673421  
2001-12-07 08:57:05 51°16.945 2°53.107 9.551808 3.469338 31.640844  
2001-12-07 08:57:09 51°16.952 2°53.094 9.55653 3.470941 31.654924  
2001-12-07 08:57:15 51°16.961 2°53.074 9.560733 3.461624 31.557055  
2001-12-07 08:57:20 51°16.969 2°53.057 9.570128 3.474046 31.680634  
2001-12-07 08:57:25 51°16.977 2°53.04 9.570128 3.474046 31.680634  
2001-12-07 08:57:30 51°16.985 2°53.023 9.580798 3.475249 31.689222  
2001-12-07 08:57:35 51°16.994 2°53.006 9.58278 3.464028 31.57139  
2001-12-07 08:57:39 51°17 2°52.992 9.580089 3.477352 31.700485  
2001-12-07 08:57:45 51°17.01 2°52.973 9.585187 3.471341 31.636087  
2001-12-07 08:57:51 51°17.021 2°52.953 9.58599 3.475148 31.669592  
2001-12-07 08:57:55 51°17.028 2°52.939 9.58599 3.475148 31.669592  
2001-12-07 08:57:59 51°17.034 2°52.926 9.588397 3.481059 31.724379  
2001-12-07 08:58:05 51°17.045 2°52.906 9.589766 3.480358 31.711553  
2001-12-07 08:58:09 51°17.051 2°52.892 9.59642 3.484265 31.747493  
2001-12-07 08:58:15 51°17.061 2°52.872 9.60416 3.485467 31.756069  
2001-12-07 08:58:19 51°17.068 2°52.859 9.608312 3.48717 31.771145  
2001-12-07 08:58:25 51°17.079 2°52.839 9.608312 3.48717 31.771145  
2001-12-07 08:58:31 51°17.089 2°52.819 9.611237 3.488172 31.780562  
2001-12-07 08:58:34 51°17.094 2°52.809 9.607179 3.48176 31.713565  
2001-12-07 08:58:40 51°17.104 2°52.788 9.601517 3.483764 31.731677  
2001-12-07 08:58:46 51°17.113 2°52.768 9.596751 3.491077 31.802055  
2001-12-07 08:58:51 51°17.121 2°52.751 9.59524 3.489474 31.781538  
2001-12-07 08:58:55 51°17.128 2°52.737 9.59524 3.489474 31.781538  
2001-12-07 08:59:00 51°17.136 2°52.719 9.634966 3.493281 31.815013  
2001-12-07 08:59:06 51°17.146 2°52.699 9.603735 3.49308 31.810833  
2001-12-07 08:59:10 51°17.153 2°52.686 9.611096 3.493281 31.812859  
2001-12-07 08:59:14 51°17.16 2°52.673 9.617795 3.49278 31.810665  
2001-12-07 08:59:19 51°17.169 2°52.657 9.623975 3.484264 31.728148  
2001-12-07 08:59:26 51°17.182 2°52.635 9.623975 3.484264 31.728148  
2001-12-07 08:59:30 51°17.189 2°52.623 9.628268 3.494082 31.826709  
2001-12-07 08:59:35 51°17.198 2°52.606 9.637182 3.494583 31.831775  
2001-12-07 08:59:41 51°17.208 2°52.586 9.647275 3.493882 31.822528  
2001-12-07 08:59:45 51°17.215 2°52.573 9.653782 3.493682 31.814758  
2001-12-07 08:59:50 51°17.224 2°52.557 9.659911 3.498891 31.863126  
2001-12-07 08:59:55 51°17.233 2°52.54 9.659911 3.498891 31.863126  
2001-12-07 09:00:00 51°17.242 2°52.524 9.664814 3.498791 31.857082  
2001-12-07 09:00:05 51°17.252 2°52.509 9.673205 3.502297 31.887503  
2001-12-07 09:00:10 51°17.262 2°52.493 9.679899 3.5039 31.899394  
2001-12-07 09:00:16 51°17.273 2°52.475 9.681407 3.504902 31.901611  
2001-12-07 09:00:20 51°17.281 2°52.463 9.682397 3.503199 31.878648  
2001-12-07 09:00:24 51°17.289 2°52.451 9.682397 3.503199 31.878648  
2001-12-07 09:00:31 51°17.302 2°52.429 9.683905 3.508008 31.920054  
2001-12-07 09:00:36 51°17.312 2°52.414 9.684894 3.509811 31.932521  
2001-12-07 09:00:41 51°17.322 2°52.399 9.688759 3.511614 31.943547  
2001-12-07 09:00:46 51°17.333 2°52.385 9.692529 3.513418 31.958167  
2001-12-07 09:00:50 51°17.341 2°52.374 9.695875 3.509811 31.916704  
2001-12-07 09:00:55 51°17.352 2°52.361 9.695875 3.509811 31.916704  
2001-12-07 09:01:00 51°17.363 2°52.349 9.774284 3.516223 31.979306  
2001-12-07 09:01:05 51°17.375 2°52.336 9.736622 3.517425 31.99073  
2001-12-07 09:01:10 51°17.386 2°52.324 9.696534 3.512616 31.939283  
2001-12-07 09:01:15 51°17.397 2°52.311 9.736056 3.519328 32.004916  
2001-12-07 09:01:20 51°17.408 2°52.299 9.697147 3.513217 31.939601  
2001-12-07 09:01:25 51°17.419 2°52.286 9.697147 3.513217 31.939601  
2001-12-07 09:01:29 51°17.428 2°52.276 9.69644 3.521733 32.022717  
2001-12-07 09:01:35 51°17.441 2°52.26 9.772872 3.522635 32.031103  
2001-12-07 09:01:39 51°17.45 2°52.249 9.696534 3.513918 31.94165  
2001-12-07 09:01:46 51°17.465 2°52.23 9.698513 3.523636 32.038338  
2001-12-07 09:01:50 51°17.473 2°52.218 9.700822 3.519429 31.996565  
2001-12-07 09:01:55 51°17.483 2°52.204 9.700822 3.519429 31.996565  
2001-12-07 09:02:00 51°17.493 2°52.189 9.745427 3.526141 32.063635  
2001-12-07 09:02:05 51°17.504 2°52.175 9.708926 3.52564 32.06074  
2001-12-07 09:02:10 51°17.514 2°52.16 9.712553 3.527043 32.074908  
2001-12-07 09:02:15 51°17.524 2°52.145 9.71472 3.523236 32.036453  
2001-12-07 09:02:21 51°17.536 2°52.128 9.714485 3.527644 32.080258  
2001-12-07 09:02:26 51°17.546 2°52.114 9.714485 3.527644 32.080258  
2001-12-07 09:02:31 51°17.556 2°52.099 9.714485 3.524238 32.042967  
2001-12-07 09:02:35 51°17.564 2°52.088 9.71472 3.53105 32.109613  
2001-12-07 09:02:39 51°17.573 2°52.077 9.714296 3.532253 32.117422  
2001-12-07 09:02:45 51°17.585 2°52.061 9.712506 3.533054 32.121905  
2001-12-07 09:02:49 51°17.594 2°52.05 9.711234 3.533355 32.123496  
2001-12-07 09:02:55 51°17.607 2°52.034 9.711234 3.533355 32.123496  
2001-12-07 09:02:59 51°17.615 2°52.023 9.711988 3.529948 32.088373  
2001-12-07 09:03:05 51°17.628 2°52.008 9.70902 3.532553 32.113956  
2001-12-07 09:03:09 51°17.637 2°51.997 9.704733 3.52554 32.043144  
2001-12-07 09:03:15 51°17.65 2°51.982 9.705439 3.53115 32.09907  
2001-12-07 09:03:19 51°17.659 2°51.972 9.704874 3.531451 32.102827  
2001-12-07 09:03:25 51°17.672 2°51.957 9.704874 3.531451 32.102827  
2001-12-07 09:03:30 51°17.683 2°51.944 9.706287 3.524237 32.031436  
2001-12-07 09:03:35 51°17.694 2°51.932 9.704497 3.53085 32.097479  
2001-12-07 09:03:39 51°17.703 2°51.921 9.705675 3.53085 32.099645  
2001-12-07 09:03:45 51°17.716 2°51.906 9.70624 3.530149 32.09545  
2001-12-07 09:03:49 51°17.725 2°51.896 9.706947 3.527444 32.068853  
2001-12-07 09:03:55 51°17.738 2°51.88 9.706947 3.527444 32.068853  
2001-12-07 09:03:59 51°17.746 2°51.87 9.707795 3.531952 32.115109  
2001-12-07 09:04:05 51°17.759 2°51.854 9.706382 3.53105 32.104557  
2001-12-07 09:04:10 51°17.769 2°51.84 9.707088 3.526141 32.056422  
2001-12-07 09:04:15 51°17.78 2°51.827 9.704874 3.533555 32.131301  
2001-12-07 09:04:19 51°17.788 2°51.816 9.703461 3.532754 32.121759  
2001-12-07 09:04:25 51°17.801 2°51.801 9.703461 3.532754 32.121759  
2001-12-07 09:04:29 51°17.809 2°51.791 9.704591 3.533154 32.125807  
2001-12-07 09:04:35 51°17.821 2°51.777 9.704073 3.533054 32.124073  
2001-12-07 09:04:40 51°17.831 2°51.765 9.706287 3.532954 32.124506  
2001-12-07 09:04:45 51°17.841 2°51.754 9.710669 3.532754 32.120314  
2001-12-07 09:04:50 51°17.851 2°51.743 9.711941 3.532553 32.120458  
2001-12-07 09:04:54 51°17.859 2°51.734 9.711941 3.532553 32.120458  
2001-12-07 09:04:59 51°17.868 2°51.722 9.710386 3.532954 32.124506  
2001-12-07 09:05:04 51°17.877 2°51.711 9.71505 3.529047 32.085042  
2001-12-07 09:05:09 51°17.887 2°51.699 9.756444 3.532553 32.121181  
2001-12-07 09:05:15 51°17.897 2°51.685 9.758421 3.531551 32.110338  
2001-12-07 09:05:20 51°17.906 2°51.673 9.759222 3.529147 32.083888  
2001-12-07 09:05:25 51°17.915 2°51.662 9.759222 3.529147 32.083888  
2001-12-07 09:05:30 51°17.924 2°51.651 9.721127 3.53626 32.154288  
2001-12-07 09:05:34 51°17.931 2°51.642 9.797059 3.535358 32.143734  
2001-12-07 09:05:39 51°17.94 2°51.632 9.718159 3.535358 32.143011  
2001-12-07 09:05:45 51°17.952 2°51.62 9.715238 3.533655 32.122919  
2001-12-07 09:05:49 51°17.959 2°51.612 9.714343 3.533655 32.120751  
2001-12-07 09:05:55 51°17.97 2°51.599 9.714343 3.533655 32.120751  
2001-12-07 09:06:00 51°17.979 2°51.59 9.72334 3.528846 32.070754  
2001-12-07 09:06:05 51°17.989 2°51.58 9.723152 3.532453 32.105002  
2001-12-07 09:06:09 51°17.996 2°51.573 9.760022 3.531451 32.09633  
2001-12-07 09:06:14 51°18.006 2°51.563 9.719101 3.530449 32.087658  
2001-12-07 09:06:20 51°18.017 2°51.551 9.717782 3.526041 32.043156  
2001-12-07 09:06:24 51°18.025 2°51.544 9.717782 3.526041 32.043156  
2001-12-07 09:06:30 51°18.036 2°51.532 9.715003 3.528746 32.071185  
2001-12-07 09:06:35 51°18.045 2°51.522 9.7118 3.528545 32.066998  
2001-12-07 09:06:39 51°18.052 2°51.514 9.710669 3.524337 32.022365  
2001-12-07 09:06:44 51°18.061 2°51.503 9.74458 3.529547 32.07567  
2001-12-07 09:06:49 51°18.07 2°51.493 9.743873 3.529347 32.074368  
2001-12-07 09:06:55 51°18.081 2°51.48 9.743873 3.529347 32.074368  
2001-12-07 09:06:59 51°18.088 2°51.471 9.780778 3.528345 32.066418  
2001-12-07 09:07:05 51°18.099 2°51.458 9.700162 3.523135 32.01455  
2001-12-07 09:07:10 51°18.108 2°51.447 9.698183 3.52574 32.043725  
2001-12-07 09:07:15 51°18.117 2°51.436 9.694744 3.526442 32.052968  
2001-12-07 09:07:19 51°18.124 2°51.426 9.692812 3.527243 32.063223  
2001-12-07 09:07:24 51°18.132 2°51.415 9.692812 3.527243 32.063223  
2001-12-07 09:07:31 51°18.144 2°51.399 9.695309 3.527043 32.062642  
2001-12-07 09:07:36 51°18.153 2°51.388 9.737328 3.526341 32.057003  
2001-12-07 09:07:41 51°18.162 2°51.376 9.701152 3.526542 32.06119  
2001-12-07 09:07:46 51°18.17 2°51.365 9.702236 3.523035 32.027943  
2001-12-07 09:07:50 51°18.177 2°51.355 9.704026 3.525941 32.060168  
2001-12-07 09:07:55 51°18.185 2°51.343 9.704026 3.525941 32.060168  
2001-12-07 09:07:59 51°18.192 2°51.334 9.706523 3.526542 32.066961  
2001-12-07 09:08:04 51°18.2 2°51.321 9.74651 3.527343 32.075057  
2001-12-07 09:08:10 51°18.21 2°51.306 9.711281 3.528546 32.085035  
2001-12-07 09:08:15 51°18.219 2°51.294 9.7126 3.527945 32.078242  
2001-12-07 09:08:20 51°18.227 2°51.282 9.713919 3.529147 32.089663  
2001-12-07 09:08:25 51°18.235 2°51.271 9.713919 3.529147 32.089663  
2001-12-07 09:08:29 51°18.242 2°51.262 9.712506 3.527043 32.066249  
2001-12-07 09:08:35 51°18.253 2°51.249 9.711517 3.532152 32.11641  
2001-12-07 09:08:39 51°18.26 2°51.24 9.710056 3.529748 32.089237  
2001-12-07 09:08:45 51°18.271 2°51.228 9.708643 3.533355 32.124941  
2001-12-07 09:08:49 51°18.278 2°51.219 9.707371 3.533455 32.124507  
2001-12-07 09:08:55 51°18.289 2°51.207 9.707371 3.533455 32.124507  
2001-12-07 09:08:59 51°18.296 2°51.199 9.70657 3.533355 32.121328  
2001-12-07 09:09:05 51°18.308 2°51.187 9.744862 3.533455 32.123062  
2001-12-07 09:09:10 51°18.317 2°51.178 9.70723 3.529147 32.079559  
2001-12-07 09:09:15 51°18.327 2°51.169 9.706853 3.533054 32.119015  
2001-12-07 09:09:20 51°18.336 2°51.16 9.70657 3.524939 32.039237  
2001-12-07 09:09:24 51°18.344 2°51.153 9.70657 3.524939 32.039237  
2001-12-07 09:09:30 51°18.356 2°51.143 9.706853 3.533455 32.124507  
2001-12-07 09:09:35 51°18.365 2°51.134 9.706382 3.531651 32.107739  
2001-12-07 09:09:40 51°18.375 2°51.124 9.743308 3.533355 32.124218  
2001-12-07 09:09:45 51°18.384 2°51.115 9.740813 3.529748 32.088515  
2001-12-07 09:09:50 51°18.393 2°51.106 9.743308 3.53085 32.101089  
2001-12-07 09:09:55 51°18.402 2°51.097 9.743308 3.53085 32.101089  
2001-12-07 09:09:59 51°18.409 2°51.09 9.745804 3.532152 32.11352  
2001-12-07 09:10:05 51°18.418 2°51.079 9.710056 3.534657 32.139542  
2001-12-07 09:10:09 51°18.424 2°51.072 9.713166 3.533054 32.124073  
2001-12-07 09:10:15 51°18.432 2°51.063 9.755079 3.53105 32.104557  
2001-12-07 09:10:20 51°18.438 2°51.055 9.716181 3.534156 32.135927  
2001-12-07 09:10:24 51°18.442 2°51.049 9.716181 3.534156 32.135927  
2001-12-07 09:10:29 51°18.447 2°51.044 9.754137 3.524538 32.038073  
2001-12-07 09:10:35 51°18.453 2°51.039 9.75522 3.533254 32.126097  
2001-12-07 09:10:40 51°18.456 2°51.036 9.719666 3.533054 32.122627  
2001-12-07 09:10:44 51°18.459 2°51.033 9.759598 3.532854 32.118436  
2001-12-07 09:10:49 51°18.462 2°51.031 9.721221 3.532854 32.115547  
2001-12-07 09:10:55 51°18.464 2°51.029 9.721221 3.532854 32.115547  
2001-12-07 09:11:00 51°18.465 2°51.027 9.721692 3.534857 32.133615  
2001-12-07 09:11:04 51°18.467 2°51.026 9.760728 3.534457 32.128845  
2001-12-07 09:11:10 51°18.468 2°51.024 9.724282 3.534657 32.128701  
2001-12-07 09:11:15 51°18.469 2°51.023 9.725224 3.535459 32.137517  
2001-12-07 09:11:19 51°18.47 2°51.021 9.764211 3.532553 32.106013  
2001-12-07 09:11:24 51°18.472 2°51.02 9.764211 3.532553 32.106013  
2001-12-07 09:11:30 51°18.474 2°51.019 9.764164 3.534156 32.120032  
2001-12-07 09:11:35 51°18.477 2°51.019 9.72659 3.529547 32.074228  
2001-12-07 09:11:39 51°18.48 2°51.019 9.76247 3.532152 32.099802  
2001-12-07 09:11:45 51°18.485 2°51.022 9.731441 3.53636 32.141564  
2001-12-07 09:11:50 51°18.489 2°51.025 9.73163 3.535559 32.133471  
2001-12-07 09:11:54 51°18.492 2°51.028 9.73163 3.535559 32.133471  
2001-12-07 09:12:00 51°18.495 2°51.032 9.728286 3.528245 32.059639  
2001-12-07 09:12:04 51°18.498 2°51.035 9.727297 3.537162 32.148211  
2001-12-07 09:12:09 51°18.5 2°51.038 9.728427 3.537162 32.148211  
2001-12-07 09:12:15 51°18.503 2°51.041 9.727674 3.535759 32.132604  
2001-12-07 09:12:21 51°18.505 2°51.043 9.765671 3.528746 32.060371  
2001-12-07 09:12:25 51°18.506 2°51.044 9.765671 3.528746 32.060371  
2001-12-07 09:12:30 51°18.507 2°51.043 9.723576 3.529848 32.071493  
2001-12-07 09:12:35 51°18.509 2°51.042 9.721409 3.537162 32.143875  
2001-12-07 09:12:39 51°18.509 2°51.041 9.763929 3.533655 32.109921  
2001-12-07 09:12:45 51°18.51 2°51.041 9.730546 3.53646 32.13824  
2001-12-07 09:12:49 51°18.511 2°51.04 9.732477 3.536961 32.142575  
2001-12-07 09:12:55 51°18.512 2°51.039 9.732477 3.536961 32.142575  
2001-12-07 09:13:00 51°18.513 2°51.038 9.735256 3.537262 32.147055  
2001-12-07 09:13:05 51°18.514 2°51.038 9.738458 3.53626 32.137662  
2001-12-07 09:13:09 51°18.514 2°51.038 9.777814 3.534557 32.121911  
2001-12-07 09:13:15 51°18.516 2°51.041 9.744532 3.532152 32.097637  
2001-12-07 09:13:19 51°18.516 2°51.044 9.744156 3.537061 32.145031  
2001-12-07 09:13:25 51°18.517 2°51.05 9.744156 3.537061 32.145031  
2001-12-07 09:13:29 51°18.518 2°51.055 9.74053 3.534156 32.112812  
2001-12-07 09:13:35 51°18.517 2°51.061 9.736151 3.537963 32.149799  
2001-12-07 09:13:39 51°18.517 2°51.065 9.732666 3.538264 32.149943  
2001-12-07 09:13:44 51°18.516 2°51.069 9.732101 3.54137 32.179127  
2001-12-07 09:13:50 51°18.515 2°51.074 9.769154 3.541971 32.183026  
2001-12-07 09:13:55 51°18.514 2°51.078 9.769154 3.541971 32.183026  
2001-12-07 09:13:59 51°18.514 2°51.08 9.72579 3.541069 32.173201  
2001-12-07 09:14:05 51°18.513 2°51.083 9.71929 3.542271 32.18606  
2001-12-07 09:14:10 51°18.514 2°51.083 9.715851 3.531952 32.084074  
2001-12-07 09:14:15 51°18.514 2°51.083 9.712271 3.540368 32.171182  
2001-12-07 09:14:19 51°18.514 2°51.082 9.713637 3.528545 32.053305  
2001-12-07 09:14:26 51°18.516 2°51.08 9.713637 3.528545 32.053305  
2001-12-07 09:14:29 51°18.516 2°51.08 9.756444 3.537262 32.144887  
2001-12-07 09:14:35 51°18.517 2°51.078 9.798376 3.534457 32.118012  
2001-12-07 09:14:40 51°18.518 2°51.077 9.72513 3.537262 32.150668  
2001-12-07 09:14:45 51°18.519 2°51.076 9.729699 3.533254 32.113094  
2001-12-07 09:14:49 51°18.519 2°51.076 9.731583 3.535058 32.134916  
2001-12-07 09:14:55 51°18.52 2°51.075 9.731583 3.535058 32.134916  
2001-12-07 09:14:59 51°18.521 2°51.074 9.772872 3.53636 32.148069  
2001-12-07 09:15:05 51°18.521 2°51.072 9.738882 3.53626 32.145611  
2001-12-07 09:15:10 51°18.522 2°51.072 9.742366 3.53085 32.08954  
2001-12-07 09:15:15 51°18.523 2°51.071 9.745145 3.537763 32.156449  
2001-12-07 09:15:20 51°18.524 2°51.07 9.745427 3.537062 32.146477  
2001-12-07 09:15:24 51°18.524 2°51.069 9.745427 3.537062 32.146477  
2001-12-07 09:15:30 51°18.525 2°51.068 9.747075 3.539466 32.167863  
2001-12-07 09:15:35 51°18.525 2°51.067 9.786802 3.538464 32.155579  
2001-12-07 09:15:39 51°18.526 2°51.066 9.746463 3.540969 32.178697  
2001-12-07 09:15:45 51°18.527 2°51.065 9.744532 3.538664 32.152543  
2001-12-07 09:15:50 51°18.527 2°51.064 9.780496 3.539165 32.154709  
2001-12-07 09:15:54 51°18.528 2°51.064 9.780496 3.539165 32.154709  
2001-12-07 09:16:00 51°18.528 2°51.063 9.739353 3.536961 32.130297  
2001-12-07 09:16:04 51°18.529 2°51.062 9.740247 3.543373 32.194292  
2001-12-07 09:16:10 51°18.53 2°51.061 9.743355 3.543273 32.193281  
2001-12-07 09:16:15 51°18.53 2°51.06 9.7394 3.542171 32.18071  
2001-12-07 09:16:20 51°18.531 2°51.06 9.735067 3.542772 32.188947  
2001-12-07 09:16:25 51°18.531 2°51.059 9.735067 3.542772 32.188947  
2001-12-07 09:16:31 51°18.532 2°51.059 9.734691 3.542572 32.187648  
2001-12-07 09:16:35 51°18.533 2°51.058 9.800635 3.540768 32.171613  
2001-12-07 09:16:39 51°18.534 2°51.058 9.715568 3.542171 32.184326  
2001-12-07 09:16:45 51°18.534 2°51.057 9.70657 3.539266 32.155721  
2001-12-07 09:16:50 51°18.535 2°51.057 9.737799 3.538163 32.144597  
2001-12-07 09:16:55 51°18.536 2°51.057 9.737799 3.538163 32.144597  
2001-12-07 09:16:59 51°18.536 2°51.057 9.695168 3.54137 32.179127  
2001-12-07 09:17:05 51°18.537 2°51.057 9.733184 3.538364 32.153122  
2001-12-07 09:17:09 51°18.537 2°51.057 9.691445 3.540368 32.177691  
2001-12-07 09:17:15 51°18.538 2°51.057 9.690455 3.536661 32.145321  
2001-12-07 09:17:20 51°18.538 2°51.058 9.689466 3.532353 32.108322  
2001-12-07 09:17:25 51°18.538 2°51.058 9.689466 3.532353 32.108322  
2001-12-07 09:17:29 51°18.539 2°51.058 9.687439 3.532854 32.119881  
2001-12-07 09:17:35 51°18.539 2°51.059 9.688476 3.533355 32.131445  
2001-12-07 09:17:39 51°18.54 2°51.059 9.690597 3.528846 32.088793  
2001-12-07 09:17:45 51°18.54 2°51.059 9.688193 3.531351 32.114817  
2001-12-07 09:17:49 51°18.54 2°51.06 9.688241 3.530349 32.106863  
2001-12-07 09:17:55 51°18.54 2°51.061 9.688241 3.530349 32.106863  
2001-12-07 09:17:59 51°18.54 2°51.061 9.688099 3.526542 32.070569  
2001-12-07 09:18:05 51°18.54 2°51.062 9.688618 3.53105 32.117562  
2001-12-07 09:18:09 51°18.54 2°51.062 9.687581 3.526542 32.070569  
2001-12-07 09:18:15 51°18.541 2°51.063 9.687581 3.530149 32.108451  
2001-12-07 09:18:19 51°18.54 2°51.063 9.725931 3.530049 32.108162  
2001-12-07 09:18:24 51°18.54 2°51.063 9.725931 3.530049 32.108162  
2001-12-07 09:18:30 51°18.54 2°51.064 9.686827 3.526943 32.076061  
2001-12-07 09:18:35 51°18.54 2°51.065 9.688005 3.519328 31.999154  
2001-12-07 09:18:40 51°18.54 2°51.065 9.689324 3.529848 32.10686  
2001-12-07 09:18:44 51°18.54 2°51.066 9.728521 3.529848 32.106137  
2001-12-07 09:18:49 51°18.539 2°51.066 9.691257 3.529247 32.100786  
2001-12-07 09:18:55 51°18.539 2°51.066 9.691257 3.529247 32.100786  
2001-12-07 09:19:00 51°18.538 2°51.067 9.691257 3.529948 32.107149  
2001-12-07 09:19:05 51°18.538 2°51.067 9.691869 3.529447 32.103533  
2001-12-07 09:19:09 51°18.537 2°51.067 9.693518 3.529548 32.1031  
2001-12-07 09:19:15 51°18.536 2°51.067 9.694602 3.530349 32.111198  
2001-12-07 09:19:19 51°18.536 2°51.068 9.695215 3.523536 32.041652  
2001-12-07 09:19:25 51°18.535 2°51.068 9.695215 3.523536 32.041652  
2001-12-07 09:19:30 51°18.534 2°51.068 9.694649 3.524538 32.052493  
2001-12-07 09:19:35 51°18.533 2°51.068 9.696864 3.53085 32.115537  
2001-12-07 09:19:40 51°18.533 2°51.068 9.697571 3.53075 32.114525  
2001-12-07 09:19:45 51°18.532 2°51.068 9.698796 3.529147 32.097606  
2001-12-07 09:19:49 51°18.531 2°51.068 9.700822 3.528045 32.085751  
2001-12-07 09:19:55 51°18.53 2°51.069 9.700822 3.528045 32.085751  
2001-12-07 09:20:00 51°18.529 2°51.069 9.700728 3.526342 32.067102  
2001-12-07 09:20:04 51°18.528 2°51.069 9.701105 3.53095 32.112936  
2001-12-07 09:20:09 51°18.527 2°51.069 9.700351 3.53075 32.110912  
2001-12-07 09:20:15 51°18.525 2°51.069 9.700351 3.531351 32.115539  
2001-12-07 09:20:19 51°18.525 2°51.069 9.699361 3.528245 32.081999  
2001-12-07 09:20:24 51°18.523 2°51.069 9.699361 3.528245 32.081999  
2001-12-07 09:20:28 51°18.522 2°51.069 9.698513 3.531251 32.112359  
2001-12-07 09:20:36 51°18.52 2°51.069 9.698372 3.531551 32.115396  
2001-12-07 09:20:40 51°18.519 2°51.069 9.698655 3.531652 32.116408  
2001-12-07 09:20:45 51°18.518 2°51.069 9.700963 3.531551 32.114673  
2001-12-07 09:20:49 51°18.517 2°51.069 9.701576 3.528546 32.084313  
2001-12-07 09:20:55 51°18.516 2°51.069 9.701576 3.528546 32.084313  
2001-12-07 09:20:59 51°18.514 2°51.069 9.701859 3.528245 32.081999  
2001-12-07 09:21:05 51°18.513 2°51.069 9.701293 3.532253 32.12248  
2001-12-07 09:21:10 51°18.512 2°51.069 9.700492 3.531451 32.115829  
2001-12-07 09:21:16 51°18.51 2°51.069 9.700304 3.531551 32.116118  
2001-12-07 09:21:19 51°18.509 2°51.069 9.699314 3.532553 32.124794  
2001-12-07 09:21:26 51°18.507 2°51.069 9.699314 3.532553 32.124794  
2001-12-07 09:21:30 51°18.506 2°51.07 9.698136 3.532253 32.121758  
2001-12-07 09:21:36 51°18.504 2°51.07 9.695827 3.532152 32.1193  
2001-12-07 09:21:40 51°18.503 2°51.07 9.694225 3.530449 32.102096  
2001-12-07 09:21:44 51°18.502 2°51.07 9.732619 3.527243 32.070437  
2001-12-07 09:21:50 51°18.5 2°51.07 9.693754 3.532353 32.123493  
2001-12-07 09:21:55 51°18.499 2°51.07 9.693754 3.532353 32.123493  
2001-12-07 09:22:00 51°18.497 2°51.07 9.694225 3.531652 32.116408  
2001-12-07 09:22:05 51°18.496 2°51.071 9.732948 3.53085 32.109034  
2001-12-07 09:22:10 51°18.494 2°51.071 9.693801 3.53065 32.107732  
2001-12-07 09:22:16 51°18.493 2°51.071 9.693801 3.530049 32.103826  
2001-12-07 09:22:20 51°18.492 2°51.071 9.692906 3.529047 32.093705  
2001-12-07 09:22:25 51°18.49 2°51.071 9.692906 3.529047 32.093705  
2001-12-07 09:22:30 51°18.489 2°51.071 9.692529 3.529247 32.097174  
2001-12-07 09:22:36 51°18.488 2°51.071 9.69366 3.529447 32.098476  
2001-12-07 09:22:40 51°18.487 2°51.07 9.732666 3.53095 32.114381  
2001-12-07 09:22:45 51°18.486 2°51.07 9.694649 3.531551 32.120455  
2001-12-07 09:22:50 51°18.485 2°51.07 9.732619 3.531251 32.118141  
2001-12-07 09:22:56 51°18.484 2°51.07 9.732619 3.531251 32.118141  
2001-12-07 09:22:59 51°18.483 2°51.07 9.694225 3.529147 32.096162  
2001-12-07 09:23:05 51°18.482 2°51.069 9.731441 3.531551 32.119732  
2001-12-07 09:23:09 51°18.481 2°51.069 9.692011 3.53105 32.114671  
2001-12-07 09:23:14 51°18.48 2°51.069 9.690832 3.53095 32.114381  
2001-12-07 09:23:21 51°18.479 2°51.068 9.689654 3.53085 32.111201  
2001-12-07 09:23:25 51°18.479 2°51.068 9.689654 3.53085 32.111201  
2001-12-07 09:23:30 51°18.478 2°51.067 9.727768 3.527343 32.077222  
2001-12-07 09:23:36 51°18.477 2°51.067 9.727155 3.53065 32.109177  
2001-12-07 09:23:39 51°18.476 2°51.067 9.688099 3.53055 32.110332  
2001-12-07 09:23:44 51°18.476 2°51.066 9.726213 3.530049 32.105994  
2001-12-07 09:23:50 51°18.475 2°51.066 9.686261 3.523136 32.036162  
2001-12-07 09:23:55 51°18.475 2°51.065 9.686261 3.523136 32.036162  
2001-12-07 09:24:00 51°18.474 2°51.064 9.6848 3.529247 32.098619  
2001-12-07 09:24:04 51°18.474 2°51.063 9.722587 3.520831 32.014331  
2001-12-07 09:24:10 51°18.473 2°51.063 9.683763 3.529748 32.105125  
2001-12-07 09:24:15 51°18.472 2°51.062 9.683669 3.530149 32.109896  
2001-12-07 09:24:20 51°18.472 2°51.061 9.722163 3.530349 32.111921  
2001-12-07 09:24:26 51°18.471 2°51.06 9.722163 3.530349 32.111921  
2001-12-07 09:24:31 51°18.471 2°51.06 9.682915 3.530049 32.111775  
2001-12-07 09:24:36 51°18.47 2°51.059 9.758939 3.527344 32.085164  
2001-12-07 09:24:41 51°18.47 2°51.058 9.680323 3.529247 32.103676  
2001-12-07 09:24:45 51°18.469 2°51.057 9.678343 3.525941 32.070993  
2001-12-07 09:24:50 51°18.469 2°51.056 9.67839 3.529147 32.101941  
2001-12-07 09:24:55 51°18.468 2°51.055 9.67839 3.529147 32.101941  
2001-12-07 09:24:59 51°18.468 2°51.054 9.678249 3.527945 32.091238  
2001-12-07 09:25:06 51°18.467 2°51.053 9.677966 3.529047 32.100206  
2001-12-07 09:25:10 51°18.467 2°51.052 9.678202 3.528846 32.099627  
2001-12-07 09:25:14 51°18.467 2°51.051 9.677448 3.528947 32.101362  
2001-12-07 09:25:20 51°18.466 2°51.05 9.677825 3.528947 32.102084  
2001-12-07 09:25:25 51°18.466 2°51.048 9.677825 3.528947 32.102084  
2001-12-07 09:25:30 51°18.466 2°51.047 9.716086 3.526742 32.080535  
2001-12-07 09:25:35 51°18.466 2°51.046 9.67773 3.528846 32.102517  
2001-12-07 09:25:40 51°18.466 2°51.045 9.677825 3.528245 32.094998  
2001-12-07 09:25:45 51°18.466 2°51.043 9.677589 3.528345 32.097455  
2001-12-07 09:25:50 51°18.466 2°51.041 9.677683 3.528045 32.09514  
2001-12-07 09:25:56 51°18.466 2°51.039 9.677683 3.528045 32.09514  
2001-12-07 09:25:59 51°18.466 2°51.038 9.678249 3.527544 32.088633  
2001-12-07 09:26:05 51°18.467 2°51.036 9.683056 3.526843 32.082992  
2001-12-07 09:26:10 51°18.467 2°51.035 9.727721 3.528145 32.09543  
2001-12-07 09:26:15 51°18.467 2°51.033 9.730594 3.528145 32.09543  
2001-12-07 09:26:21 51°18.467 2°51.031 9.697618 3.526843 32.082992  
2001-12-07 09:26:24 51°18.467 2°51.03 9.697618 3.526843 32.082992  
2001-12-07 09:26:29 51°18.466 2°51.029 9.69889 3.527644 32.089646  
2001-12-07 09:26:34 51°18.466 2°51.027 9.701011 3.527644 32.091091  
2001-12-07 09:26:40 51°18.465 2°51.026 9.702283 3.527143 32.083862  
2001-12-07 09:26:45 51°18.465 2°51.024 9.70445 3.524739 32.05596  
2001-12-07 09:26:50 51°18.464 2°51.023 9.702377 3.530149 32.107006  
2001-12-07 09:26:55 51°18.464 2°51.022 9.702377 3.530149 32.107006  
2001-12-07 09:26:59 51°18.463 2°51.021 9.738364 3.53085 32.110479  
2001-12-07 09:27:06 51°18.463 2°51.019 9.701246 3.526842 32.067832  
2001-12-07 09:27:10 51°18.462 2°51.018 9.701011 3.531251 32.110192  
2001-12-07 09:27:15 51°18.462 2°51.017 9.701152 3.531952 32.116554  
2001-12-07 09:27:20 51°18.461 2°51.016 9.697665 3.531351 32.108315  
2001-12-07 09:27:26 51°18.46 2°51.014 9.697665 3.531351 32.108315  
2001-12-07 09:27:30 51°18.46 2°51.014 9.735115 3.532152 32.115688  
2001-12-07 09:27:35 51°18.459 2°51.012 9.694649 3.531651 32.112795  
2001-12-07 09:27:39 51°18.459 2°51.012 9.694791 3.531451 32.110049  
2001-12-07 09:27:44 51°18.459 2°51.01 9.693801 3.531852 32.115542  
2001-12-07 09:27:50 51°18.458 2°51.009 9.693047 3.532152 32.117855  
2001-12-07 09:27:55 51°18.457 2°51.008 9.693047 3.532152 32.117855  
2001-12-07 09:27:59 51°18.457 2°51.007 9.693094 3.531351 32.111204  
2001-12-07 09:28:05 51°18.456 2°51.006 9.689042 3.521633 32.014501  
2001-12-07 09:28:09 51°18.456 2°51.005 9.687157 3.53095 32.109323  
2001-12-07 09:28:15 51°18.455 2°51.004 9.684942 3.530449 32.105708  
2001-12-07 09:28:20 51°18.455 2°51.003 9.683481 3.529948 32.100647  
2001-12-07 09:28:25 51°18.454 2°51.002 9.683481 3.529948 32.100647  
2001-12-07 09:28:31 51°18.454 2°51.001 9.721409 3.529447 32.096309  
2001-12-07 09:28:35 51°18.453 2°51 9.68381 3.521532 32.01565  
2001-12-07 09:28:41 51°18.453 2°50.999 9.682821 3.529047 32.095872  
2001-12-07 09:28:46 51°18.452 2°50.998 9.68169 3.528846 32.093848  
2001-12-07 09:28:50 51°18.452 2°50.998 9.681407 3.528646 32.093268  
2001-12-07 09:28:56 51°18.451 2°50.997 9.681407 3.528646 32.093268  
2001-12-07 09:29:00 51°18.451 2°50.996 9.680087 3.527243 32.07982  
2001-12-07 09:29:05 51°18.451 2°50.996 9.679946 3.528646 32.095435  
2001-12-07 09:29:10 51°18.45 2°50.995 9.67938 3.528746 32.097169  
2001-12-07 09:29:15 51°18.45 2°50.994 9.67839 3.528345 32.09312  
2001-12-07 09:29:19 51°18.449 2°50.994 9.677683 3.524438 32.052924  
2001-12-07 09:29:25 51°18.449 2°50.993 9.677683 3.524438 32.052924  
2001-12-07 09:29:30 51°18.449 2°50.992 9.678485 3.523035 32.040198  
2001-12-07 09:29:35 51°18.448 2°50.992 9.67905 3.526141 32.071573  
2001-12-07 09:29:40 51°18.448 2°50.991 9.678956 3.527043 32.08285  
2001-12-07 09:29:45 51°18.448 2°50.991 9.718206 3.526642 32.0788  
2001-12-07 09:29:50 51°18.447 2°50.99 9.67905 3.527644 32.088201  
2001-12-07 09:29:55 51°18.447 2°50.99 9.67905 3.527644 32.088201  
2001-12-07 09:29:59 51°18.447 2°50.989 9.718347 3.527844 32.090948  
2001-12-07 09:30:05 51°18.447 2°50.989 9.680983 3.526542 32.07851  
2001-12-07 09:30:10 51°18.446 2°50.988 9.720891 3.527845 32.093115  
2001-12-07 09:30:15 51°18.446 2°50.988 9.684659 3.528245 32.09572  
2001-12-07 09:30:20 51°18.446 2°50.988 9.684942 3.527945 32.094128  
2001-12-07 09:30:25 51°18.446 2°50.987 9.684942 3.527945 32.094128  
2001-12-07 09:30:30 51°18.446 2°50.987 9.686403 3.527945 32.093405  
2001-12-07 09:30:35 51°18.446 2°50.987 9.687534 3.52544 32.068819  
2001-12-07 09:30:40 51°18.446 2°50.986 9.689937 3.526742 32.080535  
2001-12-07 09:30:45 51°18.445 2°50.986 9.693943 3.528145 32.093985  
2001-12-07 09:30:50 51°18.446 2°50.985 9.699032 3.526542 32.076344  
2001-12-07 09:30:55 51°18.446 2°50.985 9.699032 3.526542 32.076344  
2001-12-07 09:31:00 51°18.446 2°50.985 9.698937 3.527344 32.084442  
2001-12-07 09:31:05 51°18.446 2°50.985 9.694744 3.527744 32.086325  
2001-12-07 09:31:10 51°18.446 2°50.985 9.691257 3.528045 32.088639  
2001-12-07 09:31:15 51°18.446 2°50.985 9.688335 3.527243 32.079098  
2001-12-07 09:31:20 51°18.446 2°50.984 9.687958 3.526943 32.074618  
2001-12-07 09:31:25 51°18.446 2°50.984 9.687958 3.526943 32.074618  
2001-12-07 09:31:30 51°18.446 2°50.984 9.687251 3.527945 32.079685  
2001-12-07 09:31:35 51°18.446 2°50.984 9.685884 3.526542 32.065518  
2001-12-07 09:31:40 51°18.446 2°50.984 9.68447 3.52554 32.056121  
2001-12-07 09:31:45 51°18.446 2°50.984 9.684517 3.528546 32.087201  
2001-12-07 09:31:50 51°18.446 2°50.984 9.68447 3.528245 32.085609  
2001-12-07 09:31:55 51°18.446 2°50.983 9.68447 3.528245 32.085609  
2001-12-07 09:32:00 51°18.447 2°50.983 9.684046 3.526141 32.067243  
2001-12-07 09:32:05 51°18.447 2°50.983 9.684376 3.526241 32.068255  
2001-12-07 09:32:10 51°18.447 2°50.983 9.684235 3.528245 32.089941  
2001-12-07 09:32:15 51°18.447 2°50.983 9.685224 3.52524 32.059577  
2001-12-07 09:32:19 51°18.447 2°50.983 9.686968 3.52574 32.066803  
2001-12-07 09:32:25 51°18.447 2°50.983 9.686968 3.52574 32.066803  
2001-12-07 09:32:30 51°18.447 2°50.983 9.687958 3.528345 32.090953  
2001-12-07 09:32:35 51°18.448 2°50.983 9.687157 3.528446 32.092688  
2001-12-07 09:32:40 51°18.448 2°50.983 9.685884 3.527644 32.08459  
2001-12-07 09:32:45 51°18.448 2°50.983 9.723058 3.527644 32.085312  
2001-12-07 09:32:50 51°18.448 2°50.983 9.684517 3.525039 32.058275  
2001-12-07 09:32:55 51°18.448 2°50.983 9.684517 3.525039 32.058275  
2001-12-07 09:33:00 51°18.449 2°50.983 9.685083 3.528546 32.092256  
2001-12-07 09:33:06 51°18.449 2°50.982 9.762517 3.527945 32.08546  
2001-12-07 09:33:10 51°18.449 2°50.982 9.687109 3.528345 32.089509  
2001-12-07 09:33:15 51°18.449 2°50.983 9.6889 3.519128 31.99641  
2001-12-07 09:33:20 51°18.449 2°50.983 9.690691 3.527844 32.085893  
2001-12-07 09:33:24 51°18.449 2°50.983 9.690691 3.527844 32.085893  
2001-12-07 09:33:29 51°18.45 2°50.983 9.690455 3.527644 32.08459  
2001-12-07 09:33:35 51°18.45 2°50.983 9.690031 3.527945 32.087627  
2001-12-07 09:33:40 51°18.449 2°50.983 9.689324 3.528446 32.092688  
2001-12-07 09:33:45 51°18.449 2°50.983 9.688618 3.527844 32.086615  
2001-12-07 09:33:49 51°18.45 2°50.983 9.688382 3.527844 32.084448  
2001-12-07 09:33:55 51°18.45 2°50.983 9.688382 3.527844 32.084448  
2001-12-07 09:33:59 51°18.45 2°50.983 9.687534 3.527844 32.083726  
2001-12-07 09:34:05 51°18.45 2°50.983 9.68645 3.523737 32.042234  
2001-12-07 09:34:10 51°18.45 2°50.982 9.68645 3.528345 32.088065  
2001-12-07 09:34:14 51°18.45 2°50.983 9.687251 3.527243 32.075488  
2001-12-07 09:34:20 51°18.45 2°50.983 9.690031 3.527945 32.084016  
2001-12-07 09:34:25 51°18.45 2°50.983 9.690031 3.527945 32.084016  
2001-12-07 09:34:30 51°18.45 2°50.982 9.730452 3.528245 32.088497  
2001-12-07 09:34:35 51°18.45 2°50.982 9.692435 3.524638 32.052063  
2001-12-07 09:34:39 51°18.45 2°50.982 9.690974 3.526241 32.068255  
2001-12-07 09:34:46 51°18.45 2°50.982 9.728851 3.528345 32.088787  
2001-12-07 09:34:50 51°18.45 2°50.982 9.68923 3.526843 32.075049  
2001-12-07 09:34:55 51°18.45 2°50.982 9.68923 3.526843 32.075049  
2001-12-07 09:35:00 51°18.45 2°50.982 9.689466 3.528045 32.085751  
2001-12-07 09:35:05 51°18.45 2°50.982 9.687816 3.524438 32.048596  
2001-12-07 09:35:11 51°18.45 2°50.982 9.685366 3.528145 32.085319  
2001-12-07 09:35:15 51°18.45 2°50.982 9.682302 3.527343 32.077222  
2001-12-07 09:35:20 51°18.45 2°50.982 9.678249 3.523536 32.038768  
2001-12-07 09:35:25 51°18.45 2°50.982 9.678249 3.523536 32.038768  
2001-12-07 09:35:30 51°18.449 2°50.981 9.674997 3.523536 32.04021  
2001-12-07 09:35:35 51°18.449 2°50.981 9.673347 3.526542 32.069848  
2001-12-07 09:35:40 51°18.449 2°50.981 9.671886 3.525841 32.064928  
2001-12-07 09:35:44 51°18.449 2°50.981 9.670707 3.526742 32.075481  
2001-12-07 09:35:50 51°18.449 2°50.981 9.708172 3.52564 32.063626  
2001-12-07 09:35:56 51°18.449 2°50.98 9.708172 3.52564 32.063626  
2001-12-07 09:36:00 51°18.449 2°50.98 9.670754 3.52544 32.064488  
2001-12-07 09:36:05 51°18.448 2°50.98 9.671697 3.524839 32.061302  
2001-12-07 09:36:10 51°18.448 2°50.979 9.668114 3.524839 32.063467  
2001-12-07 09:36:15 51°18.448 2°50.979 9.667124 3.524037 32.056812  
2001-12-07 09:36:19 51°18.448 2°50.979 9.66571 3.523937 32.057243  
2001-12-07 09:36:25 51°18.448 2°50.978 9.66571 3.523937 32.057243  
2001-12-07 09:36:30 51°18.447 2°50.978 9.66439 3.521032 32.03005  
2001-12-07 09:36:34 51°18.447 2°50.978 9.741519 3.523737 32.056662  
2001-12-07 09:36:40 51°18.447 2°50.977 9.666182 3.522935 32.048563  
2001-12-07 09:36:45 51°18.447 2°50.977 9.666182 3.522735 32.047981  
2001-12-07 09:36:49 51°18.447 2°50.977 9.664673 3.522434 32.046387  
2001-12-07 09:36:55 51°18.446 2°50.976 9.664673 3.522434 32.046387  
2001-12-07 09:36:59 51°18.446 2°50.976 9.665757 3.521733 32.039301  
2001-12-07 09:37:05 51°18.446 2°50.975 9.664909 3.522635 32.050577  
2001-12-07 09:37:09 51°18.446 2°50.975 9.66241 3.518126 32.005741  
2001-12-07 09:37:15 51°18.446 2°50.975 9.662976 3.521032 32.033657  
2001-12-07 09:37:20 51°18.445 2°50.974 9.661184 3.521633 32.040453  
2001-12-07 09:37:25 51°18.445 2°50.974 9.661184 3.521633 32.040453  
2001-12-07 09:37:30 51°18.445 2°50.973 9.659063 3.521933 32.042047  
2001-12-07 09:37:35 51°18.445 2°50.973 9.659346 3.522034 32.044503  
2001-12-07 09:37:40 51°18.444 2°50.972 9.65911 3.521032 32.033657  
2001-12-07 09:37:45 51°18.444 2°50.972 10.273836 3.521232 32.036403  
2001-12-07 09:37:50 51°18.443 2°50.971 9.65713 3.520932 32.03553  
2001-12-07 09:37:55 51°18.443 2°50.971 9.65713 3.520932 32.03553  
2001-12-07 09:38:00 51°18.442 2°50.97 9.656658 3.515421 31.981291  
2001-12-07 09:38:04 51°18.442 2°50.971 9.65812 3.520431 32.03191  
2001-12-07 09:38:10 51°18.44 2°50.972 9.660006 3.51983 32.025835  
2001-12-07 09:38:16 51°18.438 2°50.974 9.65845 3.52003 32.028582  
2001-12-07 09:38:20 51°18.437 2°50.976 9.656422 3.519228 32.022645  
2001-12-07 09:38:25 51°18.435 2°50.979 9.656422 3.519228 32.022645  
2001-12-07 09:38:30 51°18.433 2°50.982 9.66142 3.519128 32.021633  
2001-12-07 09:38:35 51°18.432 2°50.987 9.661326 3.514019 31.969999  
2001-12-07 09:38:39 51°18.431 2°50.991 10.581461 3.518627 32.017291  
2001-12-07 09:38:46 51°18.43 2°51 9.66241 3.513518 31.965658  
2001-12-07 09:38:50 51°18.429 2°51.005 9.660571 3.519228 32.022645  
2001-12-07 09:38:56 51°18.43 2°51.013 9.660571 3.519228 32.022645  
2001-12-07 09:39:00 51°18.431 2°51.019 9.660901 3.518427 32.013103  
2001-12-07 09:39:05 51°18.432 2°51.026 9.662033 3.518828 32.017153  
2001-12-07 09:39:10 51°18.434 2°51.033 9.661326 3.518928 32.018887  
2001-12-07 09:39:15 51°18.437 2°51.04 9.659676 3.511614 31.943547  
2001-12-07 09:39:20 51°18.441 2°51.046 9.660147 3.516724 31.996613  
2001-12-07 09:39:25 51°18.445 2°51.052 9.660147 3.516724 31.996613  
2001-12-07 09:39:30 51°18.45 2°51.058 9.668916 3.51472 31.977086  
2001-12-07 09:39:36 51°18.458 2°51.064 9.666417 3.515321 31.982439  
2001-12-07 09:39:41 51°18.465 2°51.067 9.66307 3.516523 31.993867  
2001-12-07 09:39:46 51°18.474 2°51.068 9.662174 3.517325 32.004129  
2001-12-07 09:39:50 51°18.481 2°51.068 9.662976 3.511414 31.941523  
2001-12-07 09:39:56 51°18.491 2°51.064 9.662976 3.511414 31.941523  
2001-12-07 09:40:00 51°18.498 2°51.06 9.706523 3.515221 31.979986  
2001-12-07 09:40:04 51°18.505 2°51.054 9.672875 3.516223 31.988669  
2001-12-07 09:40:09 51°18.513 2°51.045 9.676458 3.516523 31.991706  
2001-12-07 09:40:16 51°18.523 2°51.028 9.679474 3.515622 31.984036  
2001-12-07 09:40:20 51°18.528 2°51.018 9.681313 3.511213 31.940218  
2001-12-07 09:40:25 51°18.533 2°51.003 9.681313 3.511213 31.940218  
2001-12-07 09:40:29 51°18.537 2°50.99 9.682255 3.516022 31.986644  
2001-12-07 09:40:35 51°18.541 2°50.969 9.684235 3.516323 31.988961  
2001-12-07 09:40:39 51°18.544 2°50.954 9.685036 3.516223 31.986508  
2001-12-07 09:40:45 51°18.548 2°50.931 9.756585 3.515922 31.97987  
2001-12-07 09:40:49 51°18.55 2°50.916 9.675185 3.516123 31.979734  
2001-12-07 09:40:55 51°18.554 2°50.892 9.675185 3.516123 31.979734  
2001-12-07 09:40:59 51°18.557 2°50.875 9.669811 3.516223 31.978586  
2001-12-07 09:41:05 51°18.561 2°50.849 9.664626 3.516423 31.97989  
2001-12-07 09:41:09 51°18.563 2°50.832 9.661703 3.516924 31.98279  
2001-12-07 09:41:15 51°18.567 2°50.806 9.657695 3.516724 31.978607  
2001-12-07 09:41:20 51°18.569 2°50.784 9.656469 3.51492 31.961114  
2001-12-07 09:41:25 51°18.571 2°50.762 9.656469 3.51492 31.961114  
2001-12-07 09:41:30 51°18.574 2°50.739 9.703319 3.516223 31.976427  
2001-12-07 09:41:35 51°18.576 2°50.717 9.677023 3.515722 31.974966  
2001-12-07 09:41:39 51°18.579 2°50.699 9.686167 3.515822 31.978858  
2001-12-07 09:41:45 51°18.582 2°50.671 9.685507 3.515722 31.981447  
2001-12-07 09:41:50 51°18.585 2°50.649 9.72042 3.510612 31.933426  
2001-12-07 09:41:55 51°18.588 2°50.626 9.72042 3.510612 31.933426  
2001-12-07 09:42:00 51°18.592 2°50.603 9.70233 3.516323 31.991122  
2001-12-07 09:42:05 51°18.595 2°50.581 9.713731 3.519028 32.016294  
2001-12-07 09:42:09 51°18.598 2°50.563 9.719713 3.521132 32.032505  
2001-12-07 09:42:15 51°18.603 2°50.536 9.733466 3.523837 32.053344  
2001-12-07 09:42:20 51°18.606 2°50.513 9.736763 3.521833 32.029495  
2001-12-07 09:42:25 51°18.61 2°50.491 9.736763 3.521833 32.029495  
2001-12-07 09:42:30 51°18.613 2°50.468 9.734549 3.526141 32.071573  
2001-12-07 09:42:35 51°18.617 2°50.446 9.732006 3.528946 32.091971  
2001-12-07 09:42:40 51°18.62 2°50.423 9.72951 3.533455 32.130289  
2001-12-07 09:42:45 51°18.624 2°50.4 9.724942 3.53646 32.150526  
2001-12-07 09:42:50 51°18.627 2°50.378 9.738317 3.538464 32.162085  
2001-12-07 09:42:55 51°18.631 2°50.355 9.738317 3.538464 32.162085  
2001-12-07 09:42:59 51°18.633 2°50.337 9.787743 3.537863 32.150956  
2001-12-07 09:43:05 51°18.637 2°50.31 9.757103 3.540668 32.177109  
2001-12-07 09:43:10 51°18.641 2°50.287 9.765294 3.541169 32.18289  
2001-12-07 09:43:15 51°18.644 2°50.265 9.77466 3.54157 32.186937  
2001-12-07 09:43:20 51°18.648 2°50.242 9.779649 3.54167 32.189395  
2001-12-07 09:43:25 51°18.651 2°50.22 9.779649 3.54167 32.189395  
2001-12-07 09:43:31 51°18.655 2°50.193 9.783225 3.544576 32.214391  
2001-12-07 09:43:35 51°18.658 2°50.174 9.824623 3.54698 32.231428  
2001-12-07 09:43:40 51°18.661 2°50.152 9.786425 3.548984 32.246587  
2001-12-07 09:43:44 51°18.664 2°50.134 9.786849 3.551389 32.263615  
2001-12-07 09:43:50 51°18.668 2°50.107 9.786849 3.554294 32.284245  
2001-12-07 09:43:55 51°18.672 2°50.084 9.786849 3.554294 32.284245  
2001-12-07 09:44:00 51°18.675 2°50.062 9.78572 3.555296 32.289282  
2001-12-07 09:44:05 51°18.678 2°50.039 9.823024 3.554294 32.273375  
2001-12-07 09:44:10 51°18.682 2°50.017 9.782708 3.557801 32.307308  
2001-12-07 09:44:15 51°18.685 2°49.994 9.782425 3.559103 32.317549  
2001-12-07 09:44:20 51°18.689 2°49.972 9.780355 3.558702 32.312055  
2001-12-07 09:44:24 51°18.692 2°49.954 9.780355 3.558702 32.312055  
2001-12-07 09:44:30 51°18.696 2°49.927 9.81771 3.558803 32.313791  
2001-12-07 09:44:36 51°18.7 2°49.9 9.777249 3.559404 32.319132  
2001-12-07 09:44:40 51°18.703 2°49.882 9.776778 3.557901 32.305418  
2001-12-07 09:44:46 51°18.707 2°49.855 9.775884 3.557901 32.305418  
2001-12-07 09:44:50 51°18.709 2°49.836 9.774096 3.551188 32.237699  
2001-12-07 09:44:56 51°18.714 2°49.809 9.774096 3.551188 32.237699  
2001-12-07 09:44:59 51°18.716 2°49.796 9.772213 3.5576 32.303111  
2001-12-07 09:45:05 51°18.72 2°49.769 9.810137 3.556999 32.29777  
2001-12-07 09:45:10 51°18.724 2°49.746 9.770236 3.556598 32.295901  
2001-12-07 09:45:15 51°18.727 2°49.724 9.768871 3.555596 32.286517  
2001-12-07 09:45:19 51°18.73 2°49.706 9.767036 3.555797 32.288539  
2001-12-07 09:45:25 51°18.734 2°49.679 9.767036 3.555797 32.288539  
2001-12-07 09:45:30 51°18.738 2°49.656 9.803928 3.554094 32.273527  
2001-12-07 09:45:36 51°18.742 2°49.629 9.763176 3.554895 32.282339  
2001-12-07 09:45:40 51°18.745 2°49.611 9.763317 3.554194 32.275987  
2001-12-07 09:45:46 51°18.75 2°49.584 9.761105 3.553593 32.27137  
2001-12-07 09:45:50 51°18.752 2°49.566 9.759504 3.553593 32.272094  
2001-12-07 09:45:55 51°18.756 2°49.543 9.759504 3.553593 32.272094  
2001-12-07 09:46:00 51°18.759 2°49.521 9.758139 3.553392 32.271521  
2001-12-07 09:46:05 51°18.763 2°49.498 9.758233 3.552891 32.266466  
2001-12-07 09:46:11 51°18.767 2°49.471 9.755879 3.550687 32.246397  
2001-12-07 09:46:15 51°18.77 2°49.452 9.754373 3.551789 32.260415  
2001-12-07 09:46:20 51°18.774 2°49.43 9.792213 3.550988 32.250878  
2001-12-07 09:46:24 51°18.777 2°49.412 9.792213 3.550988 32.250878  
2001-12-07 09:46:30 51°18.781 2°49.384 9.752301 3.550687 32.250017  
2001-12-07 09:46:35 51°18.785 2°49.362 9.752066 3.550587 32.251179  
2001-12-07 09:46:39 51°18.788 2°49.344 9.751171 3.550286 32.247421  
2001-12-07 09:46:45 51°18.792 2°49.316 9.74957 3.549886 32.245549  
2001-12-07 09:46:49 51°18.795 2°49.298 9.748017 3.549385 32.241217  
2001-12-07 09:46:54 51°18.799 2°49.275 9.748017 3.549385 32.241217  
2001-12-07 09:46:59 51°18.803 2°49.253 9.747875 3.548884 32.238333  
2001-12-07 09:47:05 51°18.807 2°49.225 9.74618 3.548483 32.23646  
2001-12-07 09:47:09 51°18.81 2°49.207 9.782567 3.547982 32.229956  
2001-12-07 09:47:16 51°18.815 2°49.176 9.742366 3.547381 32.225337  
2001-12-07 09:47:20 51°18.818 2°49.157 9.741472 3.547281 32.226497  
2001-12-07 09:47:25 51°18.822 2°49.135 9.741472 3.547281 32.226497  
2001-12-07 09:47:30 51°18.825 2°49.112 9.777719 3.547181 32.225486  
2001-12-07 09:47:35 51°18.829 2°49.089 9.737516 3.545678 32.209593  
2001-12-07 09:47:40 51°18.833 2°49.067 9.735821 3.546179 32.216097  
2001-12-07 09:47:45 51°18.836 2°49.044 9.770801 3.545878 32.215234  
2001-12-07 09:47:50 51°18.84 2°49.022 9.730311 3.545177 32.209602  
2001-12-07 09:47:55 51°18.843 2°48.999 9.730311 3.545177 32.209602  
2001-12-07 09:48:00 51°18.847 2°48.976 9.726308 3.544676 32.205993  
2001-12-07 09:48:05 51°18.85 2°48.954 9.724848 3.543974 32.199637  
2001-12-07 09:48:10 51°18.854 2°48.931 9.72334 3.543674 32.198049  
2001-12-07 09:48:15 51°18.858 2°48.908 9.722304 3.542672 32.191552  
2001-12-07 09:48:20 51°18.862 2°48.886 9.722587 3.542271 32.186783  
2001-12-07 09:48:25 51°18.866 2°48.863 9.722587 3.542271 32.186783  
2001-12-07 09:48:29 51°18.868 2°48.845 9.722069 3.541871 32.187078  
2001-12-07 09:48:35 51°18.873 2°48.818 9.723811 3.541069 32.180432  
2001-12-07 09:48:40 51°18.877 2°48.795 9.724518 3.540067 32.172486  
2001-12-07 09:48:44 51°18.88 2°48.777 9.723764 3.539466 32.167863  
2001-12-07 09:48:49 51°18.883 2°48.755 9.720137 3.539165 32.166274  
2001-12-07 09:48:55 51°18.888 2°48.728 9.720137 3.539165 32.166274  
2001-12-07 09:48:59 51°18.891 2°48.71 9.712271 3.538164 32.156158  
2001-12-07 09:49:04 51°18.894 2°48.687 9.705581 3.537162 32.146766  
2001-12-07 09:49:10 51°18.898 2°48.66 9.700351 3.537162 32.146043  
2001-12-07 09:49:15 51°18.902 2°48.638 9.698466 3.537162 32.146043  
2001-12-07 09:49:20 51°18.905 2°48.615 9.733796 3.53646 32.138962  
2001-12-07 09:49:26 51°18.91 2°48.588 9.733796 3.53646 32.138962  
2001-12-07 09:49:29 51°18.912 2°48.575 9.693094 3.535759 32.133327  
2001-12-07 09:49:35 51°18.916 2°48.548 9.72805 3.534657 32.126534  
2001-12-07 09:49:40 51°18.92 2°48.525 9.686968 3.533455 32.118728  
2001-12-07 09:49:45 51°18.923 2°48.503 9.683669 3.532253 32.110921  
2001-12-07 09:49:49 51°18.926 2°48.485 9.720797 3.53095 32.1021  
2001-12-07 09:49:54 51°18.93 2°48.463 9.720797 3.53095 32.1021  
2001-12-07 09:50:00 51°18.934 2°48.436 9.679522 3.529948 32.09487  
2001-12-07 09:50:04 51°18.937 2°48.418 9.678485 3.528946 32.088361  
2001-12-07 09:50:10 51°18.941 2°48.39 9.713872 3.528145 32.081709  
2001-12-07 09:50:14 51°18.943 2°48.372 9.674337 3.527644 32.079536  
2001-12-07 09:50:21 51°18.948 2°48.341 9.67363 3.526843 32.074327  
2001-12-07 09:50:25 51°18.951 2°48.323 9.67363 3.526843 32.074327  
2001-12-07 09:50:29 51°18.954 2°48.305 9.673677 3.525941 32.066662  
2001-12-07 09:50:34 51°18.957 2°48.282 9.672263 3.52534 32.062754  
2001-12-07 09:50:40 51°18.961 2°48.255 9.670848 3.524438 32.056531  
2001-12-07 09:50:46 51°18.965 2°48.228 9.664909 3.524138 32.054216  
2001-12-07 09:50:50 51°18.968 2°48.21 9.659063 3.523236 32.047992  
2001-12-07 09:50:55 51°18.971 2°48.187 9.659063 3.523236 32.047992  
2001-12-07 09:51:00 51°18.974 2°48.165 9.650481 3.522334 32.040325  
2001-12-07 09:51:05 51°18.978 2°48.142 9.641993 3.522234 32.03787  
2001-12-07 09:51:09 51°18.98 2°48.124 9.63605 3.521232 32.029912  
2001-12-07 09:51:15 51°18.984 2°48.097 9.631004 3.519829 32.017183  
2001-12-07 09:51:21 51°18.988 2°48.069 9.628221 3.518126 32.003579  
2001-12-07 09:51:26 51°18.991 2°48.047 9.628221 3.518126 32.003579  
2001-12-07 09:51:30 51°18.994 2°48.029 9.626051 3.516123 31.986936  
2001-12-07 09:51:35 51°18.997 2°48.006 9.620626 3.513818 31.968695  
2001-12-07 09:51:39 51°18.999 2°47.988 9.608548 3.510813 31.945523  
2001-12-07 09:51:45 51°19.003 2°47.961 9.601187 3.507807 31.922344  
2001-12-07 09:51:51 51°19.007 2°47.934 9.597883 3.506305 31.910753  
2001-12-07 09:51:56 51°19.01 2°47.911 9.597883 3.506305 31.910753  
2001-12-07 09:52:01 51°19.014 2°47.888 9.595807 3.5036 31.887728  
2001-12-07 09:52:04 51°19.015 2°47.874 9.594533 3.501796 31.873095  
2001-12-07 09:52:10 51°19.019 2°47.847 9.596326 3.498991 31.848334  
2001-12-07 09:52:15 51°19.022 2°47.825 9.599252 3.496386 31.827749  
2001-12-07 09:52:21 51°19.026 2°47.797 9.59996 3.49278 31.799185  
2001-12-07 09:52:26 51°19.029 2°47.775 9.59996 3.49278 31.799185  
2001-12-07 09:52:30 51°19.032 2°47.757 9.608737 3.489975 31.77513  
2001-12-07 09:52:34 51°19.034 2°47.738 9.553508 3.48757 31.752975  
2001-12-07 09:52:39 51°19.037 2°47.716 9.541748 3.486368 31.742971  
2001-12-07 09:52:45 51°19.041 2°47.689 9.569609 3.485467 31.735289  
2001-12-07 09:52:50 51°19.044 2°47.666 9.525498 3.484765 31.727484  
2001-12-07 09:52:55 51°19.047 2°47.644 9.525498 3.484765 31.727484  
2001-12-07 09:53:01 51°19.051 2°47.616 9.522285 3.483162 31.714145  
2001-12-07 09:53:06 51°19.054 2°47.594 9.523797 3.478955 31.67948  
2001-12-07 09:53:10 51°19.057 2°47.576 9.526868 3.474447 31.644625  
2001-12-07 09:53:16 51°19.061 2°47.548 9.532395 3.469438 31.606833  
2001-12-07 09:53:19 51°19.063 2°47.535 9.572489 3.466232 31.584406  
2001-12-07 09:53:26 51°19.067 2°47.503 9.572489 3.466232 31.584406  
2001-12-07 09:53:30 51°19.07 2°47.485 9.534284 3.463327 31.562156  
2001-12-07 09:53:36 51°19.074 2°47.458 9.536127 3.461123 31.544854  
2001-12-07 09:53:41 51°19.077 2°47.435 9.574944 3.460722 31.543653  
2001-12-07 09:53:45 51°19.08 2°47.417 9.576691 3.460522 31.539487  
2001-12-07 09:53:50 51°19.083 2°47.395 9.537638 3.461123 31.545567  
2001-12-07 09:53:55 51°19.087 2°47.372 9.537638 3.461123 31.545567  
2001-12-07 09:54:01 51°19.091 2°47.345 9.538063 3.461724 31.548795  
2001-12-07 09:54:05 51°19.093 2°47.327 9.541086 3.461624 31.548495  
2001-12-07 09:54:09 51°19.096 2°47.309 9.580656 3.462325 31.554162  
2001-12-07 09:54:15 51°19.1 2°47.281 9.540898 3.462526 31.556189  
2001-12-07 09:54:20 51°19.103 2°47.259 9.54052 3.462826 31.557089